createdAt,value
2018-04-29T00:00:32.820Z,1001.44
2018-04-29T00:01:32.843Z,1001.41
2018-04-29T00:02:32.907Z,1001.40
2018-04-29T00:03:32.874Z,1001.39
2018-04-29T00:04:32.891Z,1001.40
2018-04-29T00:05:32.904Z,1001.43
2018-04-29T00:06:32.915Z,1001.37
2018-04-29T00:07:32.932Z,1001.42
2018-04-29T00:08:33.000Z,1001.41
2018-04-29T00:09:32.966Z,1001.46
2018-04-29T00:10:32.991Z,1001.39
2018-04-29T00:11:32.997Z,1001.46
2018-04-29T00:12:33.010Z,1001.47
2018-04-29T00:13:33.026Z,1001.45
2018-04-29T00:14:33.098Z,1001.44
2018-04-29T00:15:33.058Z,1001.42
2018-04-29T00:16:33.069Z,1001.48
2018-04-29T00:17:33.092Z,1001.47
2018-04-29T00:18:33.105Z,1001.46
2018-04-29T00:19:33.116Z,1001.41
2018-04-29T00:20:33.189Z,1001.43
2018-04-29T00:21:33.194Z,1001.44
2018-04-29T00:22:33.164Z,1001.44
2018-04-29T00:23:33.186Z,1001.46
2018-04-29T00:24:33.197Z,1001.46
2018-04-29T00:25:33.279Z,1001.44
2018-04-29T00:26:33.279Z,1001.44
2018-04-29T00:27:33.246Z,1001.47
2018-04-29T00:28:33.261Z,1001.50
2018-04-29T00:29:33.275Z,1001.51
2018-04-29T00:30:33.294Z,1001.54
2018-04-29T00:31:33.306Z,1001.61
2018-04-29T00:32:33.374Z,1001.63
2018-04-29T00:33:33.335Z,1001.58
2018-04-29T00:34:33.358Z,1001.66
2018-04-29T00:35:33.368Z,1001.61
2018-04-29T00:36:33.386Z,1001.56
2018-04-29T00:37:33.396Z,1001.52
2018-04-29T00:38:33.476Z,1001.56
2018-04-29T00:39:33.431Z,1001.57
2018-04-29T00:40:33.484Z,1001.52
2018-04-29T00:41:33.462Z,1001.50
2018-04-29T00:42:33.475Z,1001.52
2018-04-29T00:43:33.498Z,1001.48
2018-04-29T00:44:33.558Z,1001.46
2018-04-29T00:45:33.527Z,1001.52
2018-04-29T00:46:33.562Z,1001.47
2018-04-29T00:47:33.560Z,1001.49
2018-04-29T00:48:33.577Z,1001.50
2018-04-29T00:49:33.589Z,1001.45
2018-04-29T00:50:33.722Z,1001.42
2018-04-29T00:51:33.620Z,1001.43
2018-04-29T00:52:33.670Z,1001.41
2018-04-29T00:53:33.654Z,1001.38
2018-04-29T00:54:33.674Z,1001.30
2018-04-29T00:55:33.684Z,1001.32
2018-04-29T00:56:33.756Z,1001.32
2018-04-29T00:57:33.721Z,1001.31
2018-04-29T00:58:33.741Z,1001.36
2018-04-29T00:59:33.747Z,1001.38
2018-04-29T01:00:33.764Z,1001.34
2018-04-29T01:01:33.788Z,1001.37
2018-04-29T01:02:33.857Z,1001.32
2018-04-29T01:03:33.810Z,1001.31
2018-04-29T01:04:33.864Z,1001.34
2018-04-29T01:05:33.855Z,1001.29
2018-04-29T01:06:33.858Z,1001.26
2018-04-29T01:07:33.880Z,1001.34
2018-04-29T01:08:33.942Z,1001.31
2018-04-29T01:09:33.905Z,1001.31
2018-04-29T01:10:33.954Z,1001.30
2018-04-29T01:11:33.948Z,1001.32
2018-04-29T01:12:33.955Z,1001.31
2018-04-29T01:13:33.968Z,1001.28
2018-04-29T01:14:34.039Z,1001.29
2018-04-29T01:15:34.001Z,1001.33
2018-04-29T01:16:34.019Z,1001.31
2018-04-29T01:17:34.037Z,1001.31
2018-04-29T01:18:34.055Z,1001.34
2018-04-29T01:19:34.063Z,1001.32
2018-04-29T01:20:34.131Z,1001.36
2018-04-29T01:21:34.103Z,1001.32
2018-04-29T01:22:34.117Z,1001.28
2018-04-29T01:23:34.134Z,1001.20
2018-04-29T01:24:34.142Z,1001.26
2018-04-29T01:25:34.161Z,1001.27
2018-04-29T01:26:34.228Z,1001.27
2018-04-29T01:27:34.192Z,1001.23
2018-04-29T01:28:34.214Z,1001.24
2018-04-29T01:29:34.223Z,1001.27
2018-04-29T01:30:34.244Z,1001.30
2018-04-29T01:31:34.256Z,1001.29
2018-04-29T01:32:34.321Z,1001.31
2018-04-29T01:33:34.293Z,1001.31
2018-04-29T01:34:34.325Z,1001.30
2018-04-29T01:35:34.317Z,1001.27
2018-04-29T01:36:34.336Z,1001.25
2018-04-29T01:37:34.352Z,1001.33
2018-04-29T01:38:34.415Z,1001.30
2018-04-29T01:39:34.382Z,1001.30
2018-04-29T01:40:34.396Z,1001.29
2018-04-29T01:41:34.411Z,1001.31
2018-04-29T01:42:34.438Z,1001.30
2018-04-29T01:43:34.447Z,1001.26
2018-04-29T01:44:34.519Z,1001.28
2018-04-29T01:45:34.481Z,1001.28
2018-04-29T01:46:34.497Z,1001.29
2018-04-29T01:47:34.521Z,1001.31
2018-04-29T01:48:34.523Z,1001.25
2018-04-29T01:49:34.539Z,1001.25
2018-04-29T01:50:34.610Z,1001.27
2018-04-29T01:51:34.648Z,1001.27
2018-04-29T01:52:34.583Z,1001.23
2018-04-29T01:53:34.607Z,1001.21
2018-04-29T01:54:34.617Z,1001.22
2018-04-29T01:55:34.645Z,1001.26
2018-04-29T01:56:34.704Z,1001.27
2018-04-29T01:57:34.678Z,1001.26
2018-04-29T01:58:34.682Z,1001.25
2018-04-29T01:59:34.698Z,1001.27
2018-04-29T02:00:34.718Z,1001.27
2018-04-29T02:01:34.730Z,1001.28
2018-04-29T02:02:34.805Z,1001.32
2018-04-29T02:03:34.773Z,1001.32
2018-04-29T02:04:34.776Z,1001.29
2018-04-29T02:05:34.795Z,1001.27
2018-04-29T02:06:34.814Z,1001.28
2018-04-29T02:07:34.823Z,1001.26
2018-04-29T02:08:34.895Z,1001.26
2018-04-29T02:09:34.854Z,1001.24
2018-04-29T02:10:34.872Z,1001.30
2018-04-29T02:11:34.889Z,1001.27
2018-04-29T02:12:34.903Z,1001.34
2018-04-29T02:13:35.020Z,1001.37
2018-04-29T02:14:34.987Z,1001.36
2018-04-29T02:15:34.950Z,1001.32
2018-04-29T02:16:35.056Z,1001.32
2018-04-29T02:17:34.981Z,1001.30
2018-04-29T02:18:35.001Z,1001.28
2018-04-29T02:19:35.016Z,1001.32
2018-04-29T02:20:35.079Z,1001.28
2018-04-29T02:21:35.052Z,1001.29
2018-04-29T02:22:35.130Z,1001.28
2018-04-29T02:23:35.083Z,1001.28
2018-04-29T02:24:35.104Z,1001.32
2018-04-29T02:25:35.113Z,1001.37
2018-04-29T02:26:35.174Z,1001.45
2018-04-29T02:27:35.149Z,1001.46
2018-04-29T02:28:35.155Z,1001.48
2018-04-29T02:29:35.174Z,1001.51
2018-04-29T02:30:35.189Z,1001.44
2018-04-29T02:31:35.211Z,1001.46
2018-04-29T02:32:35.276Z,1001.50
2018-04-29T02:33:35.246Z,1001.48
2018-04-29T02:34:35.250Z,1001.38
2018-04-29T02:35:35.273Z,1001.38
2018-04-29T02:36:35.286Z,1001.32
2018-04-29T02:37:35.304Z,1001.31
2018-04-29T02:38:35.316Z,1001.34
2018-04-29T02:39:35.336Z,1001.30
2018-04-29T02:40:35.350Z,1001.37
2018-04-29T02:41:35.367Z,1001.36
2018-04-29T02:42:35.378Z,1001.53
2018-04-29T02:43:35.408Z,1001.52
2018-04-29T02:44:35.458Z,1001.59
2018-04-29T02:45:35.428Z,1001.60
2018-04-29T02:46:35.438Z,1001.65
2018-04-29T02:47:35.540Z,1001.57
2018-04-29T02:48:35.475Z,1001.63
2018-04-29T02:49:35.490Z,1001.51
2018-04-29T02:50:35.552Z,1001.52
2018-04-29T02:51:35.514Z,1001.52
2018-04-29T02:52:35.527Z,1001.44
2018-04-29T02:53:35.549Z,1001.48
2018-04-29T02:54:35.561Z,1001.43
2018-04-29T02:55:35.576Z,1001.44
2018-04-29T02:56:35.646Z,1001.44
2018-04-29T02:57:35.612Z,1001.45
2018-04-29T02:58:35.625Z,1001.44
2018-04-29T02:59:35.641Z,1001.47
2018-04-29T03:00:35.744Z,1001.46
2018-04-29T03:01:35.666Z,1001.52
2018-04-29T03:03:42.909Z,1001.49
2018-04-29T03:04:35.709Z,1001.49
2018-04-29T03:05:35.731Z,1001.50
2018-04-29T03:06:35.747Z,1001.50
2018-04-29T03:07:35.762Z,1001.50
2018-04-29T03:08:35.780Z,1001.48
2018-04-29T03:09:35.893Z,1001.47
2018-04-29T03:10:35.803Z,1001.53
2018-04-29T03:11:35.822Z,1001.54
2018-04-29T03:12:35.837Z,1001.58
2018-04-29T03:13:35.853Z,1001.59
2018-04-29T03:14:35.870Z,1001.61
2018-04-29T03:15:35.881Z,1001.58
2018-04-29T03:16:35.910Z,1001.61
2018-04-29T03:17:35.910Z,1001.62
2018-04-29T03:18:35.930Z,1001.63
2018-04-29T03:19:35.946Z,1001.64
2018-04-29T03:20:35.962Z,1001.61
2018-04-29T03:21:35.971Z,1001.59
2018-04-29T03:22:35.987Z,1001.62
2018-04-29T03:23:36.003Z,1001.63
2018-04-29T03:24:36.017Z,1001.63
2018-04-29T03:25:36.035Z,1001.64
2018-04-29T03:26:36.050Z,1001.65
2018-04-29T03:27:36.068Z,1001.65
2018-04-29T03:28:36.084Z,1001.61
2018-04-29T03:29:36.107Z,1001.63
2018-04-29T03:30:36.113Z,1001.61
2018-04-29T03:31:36.128Z,1001.60
2018-04-29T03:32:36.145Z,1001.62
2018-04-29T03:33:36.157Z,1001.62
2018-04-29T03:34:36.175Z,1001.68
2018-04-29T03:35:36.240Z,1001.65
2018-04-29T03:36:36.199Z,1001.64
2018-04-29T03:37:36.223Z,1001.70
2018-04-29T03:38:36.235Z,1001.75
2018-04-29T03:39:36.248Z,1001.75
2018-04-29T03:40:36.266Z,1001.74
2018-04-29T03:41:36.275Z,1001.75
2018-04-29T03:42:36.299Z,1001.81
2018-04-29T03:43:36.306Z,1001.77
2018-04-29T03:44:36.323Z,1001.77
2018-04-29T03:45:36.334Z,1001.74
2018-04-29T03:46:36.361Z,1001.74
2018-04-29T03:47:36.374Z,1001.77
2018-04-29T03:48:36.385Z,1001.75
2018-04-29T03:49:36.406Z,1001.69
2018-04-29T03:50:36.425Z,1001.72
2018-04-29T03:51:36.437Z,1001.72
2018-04-29T03:52:36.443Z,1001.73
2018-04-29T03:53:36.464Z,1001.71
2018-04-29T03:54:36.483Z,1001.70
2018-04-29T03:55:36.496Z,1001.71
2018-04-29T03:56:36.511Z,1001.71
2018-04-29T03:57:36.524Z,1001.78
2018-04-29T03:58:36.545Z,1001.83
2018-04-29T03:59:36.552Z,1001.83
2018-04-29T04:00:36.588Z,1001.87
2018-04-29T04:01:36.586Z,1001.89
2018-04-29T04:02:36.646Z,1001.87
2018-04-29T04:03:36.616Z,1001.88
2018-04-29T04:04:36.632Z,1001.92
2018-04-29T04:05:36.647Z,1001.89
2018-04-29T04:06:36.751Z,1001.87
2018-04-29T04:07:36.679Z,1001.87
2018-04-29T04:08:36.699Z,1001.88
2018-04-29T04:09:36.711Z,1001.85
2018-04-29T04:10:36.728Z,1001.85
2018-04-29T04:11:36.744Z,1001.78
2018-04-29T04:12:36.852Z,1001.82
2018-04-29T04:13:36.769Z,1001.81
2018-04-29T04:14:36.786Z,1001.85
2018-04-29T04:15:36.805Z,1001.90
2018-04-29T04:16:36.822Z,1001.93
2018-04-29T04:17:36.835Z,1001.96
2018-04-29T04:18:36.893Z,1002.02
2018-04-29T04:19:36.862Z,1002.09
2018-04-29T04:20:36.881Z,1002.09
2018-04-29T04:21:36.895Z,1001.96
2018-04-29T04:22:36.913Z,1001.92
2018-04-29T04:23:36.950Z,1001.94
2018-04-29T04:24:36.964Z,1001.94
2018-04-29T04:25:36.959Z,1001.89
2018-04-29T04:26:36.974Z,1001.86
2018-04-29T04:27:36.991Z,1001.84
2018-04-29T04:28:37.003Z,1001.91
2018-04-29T04:29:37.026Z,1001.86
2018-04-29T04:30:37.048Z,1001.90
2018-04-29T04:31:37.049Z,1001.94
2018-04-29T04:32:37.067Z,1001.99
2018-04-29T04:33:37.085Z,1001.99
2018-04-29T04:34:37.095Z,1001.93
2018-04-29T04:35:37.118Z,1001.88
2018-04-29T04:36:37.131Z,1001.92
2018-04-29T04:37:37.139Z,1001.94
2018-04-29T04:38:37.163Z,1001.98
2018-04-29T04:39:37.174Z,1001.95
2018-04-29T04:40:37.189Z,1002.00
2018-04-29T04:41:37.200Z,1001.95
2018-04-29T04:42:37.218Z,1002.00
2018-04-29T04:43:37.273Z,1001.98
2018-04-29T04:44:37.254Z,1002.03
2018-04-29T04:45:37.265Z,1002.04
2018-04-29T04:46:37.276Z,1002.01
2018-04-29T04:47:37.294Z,1002.06
2018-04-29T04:48:37.312Z,1002.09
2018-04-29T04:49:37.326Z,1002.04
2018-04-29T04:50:37.391Z,1002.09
2018-04-29T04:51:37.358Z,1002.04
2018-04-29T04:52:37.371Z,1002.05
2018-04-29T04:53:37.391Z,1002.08
2018-04-29T04:54:37.406Z,1002.14
2018-04-29T04:55:37.417Z,1002.11
2018-04-29T04:56:37.437Z,1002.14
2018-04-29T04:57:37.446Z,1002.16
2018-04-29T04:58:37.465Z,1002.19
2018-04-29T04:59:37.477Z,1002.22
2018-04-29T05:00:37.495Z,1002.23
2018-04-29T05:01:37.507Z,1002.21
2018-04-29T05:02:37.522Z,1002.22
2018-04-29T05:03:37.539Z,1002.23
2018-04-29T05:04:37.557Z,1002.17
2018-04-29T05:05:37.567Z,1002.18
2018-04-29T05:06:37.584Z,1002.21
2018-04-29T05:07:37.604Z,1002.24
2018-04-29T05:08:37.615Z,1002.22
2018-04-29T05:09:37.629Z,1002.26
2018-04-29T05:10:37.650Z,1002.32
2018-04-29T05:11:37.666Z,1002.32
2018-04-29T05:12:37.682Z,1002.32
2018-04-29T05:13:37.724Z,1002.34
2018-04-29T05:14:37.729Z,1002.36
2018-04-29T05:15:37.728Z,1002.41
2018-04-29T05:16:37.743Z,1002.38
2018-04-29T05:17:37.753Z,1002.43
2018-04-29T05:18:37.772Z,1002.42
2018-04-29T05:19:37.792Z,1002.44
2018-04-29T05:20:37.834Z,1002.46
2018-04-29T05:21:37.818Z,1002.51
2018-04-29T05:22:37.836Z,1002.63
2018-04-29T05:23:37.850Z,1002.68
2018-04-29T05:24:37.865Z,1002.69
2018-04-29T05:25:37.887Z,1002.61
2018-04-29T05:26:37.947Z,1002.54
2018-04-29T05:27:37.915Z,1002.53
2018-04-29T05:28:37.921Z,1002.54
2018-04-29T05:29:37.940Z,1002.53
2018-04-29T05:30:37.957Z,1002.56
2018-04-29T05:31:37.976Z,1002.57
2018-04-29T05:32:37.990Z,1002.63
2018-04-29T05:33:38.006Z,1002.77
2018-04-29T05:34:38.015Z,1002.64
2018-04-29T05:35:38.034Z,1002.61
2018-04-29T05:36:38.045Z,1002.62
2018-04-29T05:37:38.059Z,1002.65
2018-04-29T05:38:38.082Z,1002.61
2018-04-29T05:39:38.094Z,1002.61
2018-04-29T05:40:38.112Z,1002.56
2018-04-29T05:41:38.125Z,1002.59
2018-04-29T05:42:38.136Z,1002.61
2018-04-29T05:43:38.150Z,1002.54
2018-04-29T05:44:38.166Z,1002.59
2018-04-29T05:45:38.185Z,1002.61
2018-04-29T05:46:38.193Z,1002.67
2018-04-29T05:47:38.217Z,1002.64
2018-04-29T05:48:38.226Z,1002.66
2018-04-29T05:49:38.246Z,1002.68
2018-04-29T05:50:38.266Z,1002.66
2018-04-29T05:51:38.299Z,1002.64
2018-04-29T05:52:38.282Z,1002.70
2018-04-29T05:53:38.299Z,1002.72
2018-04-29T05:54:38.313Z,1002.65
2018-04-29T05:55:38.333Z,1002.75
2018-04-29T05:56:38.351Z,1002.74
2018-04-29T05:57:38.427Z,1002.74
2018-04-29T05:58:38.376Z,1002.71
2018-04-29T05:59:38.389Z,1002.70
2018-04-29T06:00:38.408Z,1002.72
2018-04-29T06:01:38.419Z,1002.73
2018-04-29T06:02:38.440Z,1002.74
2018-04-29T06:03:38.488Z,1002.81
2018-04-29T06:04:38.469Z,1002.88
2018-04-29T06:05:38.485Z,1002.87
2018-04-29T06:06:38.537Z,1002.90
2018-04-29T06:07:38.516Z,1002.97
2018-04-29T06:08:38.525Z,1002.97
2018-04-29T06:09:38.605Z,1002.98
2018-04-29T06:10:38.554Z,1003.01
2018-04-29T06:11:38.573Z,1003.02
2018-04-29T06:12:38.586Z,1003.00
2018-04-29T06:13:38.615Z,1003.00
2018-04-29T06:14:38.632Z,1003.04
2018-04-29T06:15:38.638Z,1003.00
2018-04-29T06:16:38.648Z,1003.08
2018-04-29T06:17:38.660Z,1003.11
2018-04-29T06:18:38.680Z,1003.05
2018-04-29T06:19:38.704Z,1003.03
2018-04-29T06:20:38.704Z,1003.02
2018-04-29T06:21:38.773Z,1003.10
2018-04-29T06:22:38.745Z,1003.09
2018-04-29T06:23:38.751Z,1003.10
2018-04-29T06:24:38.779Z,1003.07
2018-04-29T06:25:38.818Z,1003.12
2018-04-29T06:26:38.802Z,1003.15
2018-04-29T06:27:38.812Z,1003.19
2018-04-29T06:28:38.833Z,1003.19
2018-04-29T06:29:38.845Z,1003.20
2018-04-29T06:30:38.861Z,1003.23
2018-04-29T06:31:38.874Z,1003.21
2018-04-29T06:32:38.893Z,1003.24
2018-04-29T06:33:38.909Z,1003.26
2018-04-29T06:34:38.917Z,1003.23
2018-04-29T06:35:38.933Z,1003.30
2018-04-29T06:36:38.955Z,1003.32
2018-04-29T06:37:38.976Z,1003.30
2018-04-29T06:38:39.002Z,1003.29
2018-04-29T06:39:39.001Z,1003.29
2018-04-29T06:40:39.017Z,1003.36
2018-04-29T06:41:39.029Z,1003.37
2018-04-29T06:42:39.048Z,1003.38
2018-04-29T06:43:39.059Z,1003.44
2018-04-29T06:44:39.080Z,1003.45
2018-04-29T06:45:39.094Z,1003.45
2018-04-29T06:46:39.107Z,1003.50
2018-04-29T06:47:39.120Z,1003.48
2018-04-29T06:48:39.144Z,1003.51
2018-04-29T06:49:39.158Z,1003.51
2018-04-29T06:50:39.175Z,1003.59
2018-04-29T06:51:39.192Z,1003.64
2018-04-29T06:52:39.207Z,1003.67
2018-04-29T06:53:39.214Z,1003.69
2018-04-29T06:54:39.238Z,1003.70
2018-04-29T06:55:39.250Z,1003.65
2018-04-29T06:56:39.263Z,1003.65
2018-04-29T06:57:39.326Z,1003.61
2018-04-29T06:58:39.303Z,1003.65
2018-04-29T06:59:39.320Z,1003.61
2018-04-29T07:00:39.330Z,1003.64
2018-04-29T07:01:39.350Z,1003.60
2018-04-29T07:02:39.361Z,1003.67
2018-04-29T07:03:39.472Z,1003.66
2018-04-29T07:04:39.392Z,1003.67
2018-04-29T07:05:39.409Z,1003.67
2018-04-29T07:06:39.426Z,1003.67
2018-04-29T07:07:39.442Z,1003.68
2018-04-29T07:08:39.468Z,1003.68
2018-04-29T07:09:39.554Z,1003.71
2018-04-29T07:10:39.498Z,1003.70
2018-04-29T07:11:39.507Z,1003.76
2018-04-29T07:12:39.522Z,1003.74
2018-04-29T07:13:39.540Z,1003.76
2018-04-29T07:14:39.562Z,1003.75
2018-04-29T07:15:39.662Z,1003.81
2018-04-29T07:16:39.590Z,1003.76
2018-04-29T07:17:39.614Z,1003.80
2018-04-29T07:18:39.626Z,1003.81
2018-04-29T07:19:39.641Z,1003.79
2018-04-29T07:20:39.663Z,1003.79
2018-04-29T07:21:39.758Z,1003.84
2018-04-29T07:22:39.698Z,1003.81
2018-04-29T07:23:39.710Z,1003.78
2018-04-29T07:24:39.730Z,1003.82
2018-04-29T07:25:39.745Z,1003.84
2018-04-29T07:26:39.766Z,1003.81
2018-04-29T07:27:39.808Z,1003.81
2018-04-29T07:28:39.827Z,1003.86
2018-04-29T07:29:39.812Z,1003.87
2018-04-29T07:30:39.828Z,1003.87
2018-04-29T07:31:39.847Z,1003.85
2018-04-29T07:32:39.864Z,1003.90
2018-04-29T07:33:39.879Z,1003.92
2018-04-29T07:34:39.918Z,1003.91
2018-04-29T07:35:39.915Z,1003.89
2018-04-29T07:36:39.930Z,1003.88
2018-04-29T07:37:39.953Z,1003.87
2018-04-29T07:38:39.968Z,1003.94
2018-04-29T07:39:39.982Z,1003.96
2018-04-29T07:40:39.998Z,1003.93
2018-04-29T07:41:40.021Z,1003.93
2018-04-29T07:42:40.032Z,1003.92
2018-04-29T07:43:40.055Z,1003.91
2018-04-29T07:44:40.067Z,1003.91
2018-04-29T07:45:40.082Z,1003.93
2018-04-29T07:46:40.104Z,1004.00
2018-04-29T07:47:40.118Z,1004.07
2018-04-29T07:48:40.138Z,1004.00
2018-04-29T07:49:40.152Z,1004.05
2018-04-29T07:50:40.176Z,1004.09
2018-04-29T07:51:40.187Z,1003.99
2018-04-29T07:52:40.418Z,1003.88
2018-04-29T07:53:40.223Z,1003.87
2018-04-29T07:54:40.246Z,1003.98
2018-04-29T07:55:40.264Z,1004.05
2018-04-29T07:56:40.279Z,1003.99
2018-04-29T07:57:40.298Z,1004.08
2018-04-29T07:58:40.396Z,1004.21
2018-04-29T07:59:40.327Z,1004.18
2018-04-29T08:00:40.376Z,1004.19
2018-04-29T08:01:40.363Z,1004.22
2018-04-29T08:02:40.386Z,1004.27
2018-04-29T08:03:40.400Z,1004.26
2018-04-29T08:04:40.443Z,1004.28
2018-04-29T08:05:40.429Z,1004.27
2018-04-29T08:06:40.495Z,1004.28
2018-04-29T08:07:40.471Z,1004.28
2018-04-29T08:08:40.491Z,1004.29
2018-04-29T08:09:40.504Z,1004.36
2018-04-29T08:10:40.518Z,1004.35
2018-04-29T08:11:40.540Z,1004.35
2018-04-29T08:12:40.553Z,1004.35
2018-04-29T08:13:40.571Z,1004.41
2018-04-29T08:14:40.586Z,1004.41
2018-04-29T08:15:40.626Z,1004.38
2018-04-29T08:16:40.616Z,1004.39
2018-04-29T08:17:40.637Z,1004.37
2018-04-29T08:18:40.648Z,1004.40
2018-04-29T08:19:40.666Z,1004.47
2018-04-29T08:20:40.689Z,1004.41
2018-04-29T08:21:40.700Z,1004.46
2018-04-29T08:22:40.810Z,1004.55
2018-04-29T08:23:40.736Z,1004.54
2018-04-29T08:24:40.753Z,1004.54
2018-04-29T08:25:40.766Z,1004.55
2018-04-29T08:26:40.785Z,1004.57
2018-04-29T08:27:40.804Z,1004.57
2018-04-29T08:28:40.814Z,1004.54
2018-04-29T08:29:40.835Z,1004.57
2018-04-29T08:30:40.864Z,1004.59
2018-04-29T08:31:40.871Z,1004.57
2018-04-29T08:32:40.888Z,1004.65
2018-04-29T08:33:40.901Z,1004.63
2018-04-29T08:34:40.925Z,1004.63
2018-04-29T08:35:40.985Z,1004.62
2018-04-29T08:36:40.958Z,1004.66
2018-04-29T08:37:40.980Z,1004.63
2018-04-29T08:38:40.992Z,1004.66
2018-04-29T08:39:41.008Z,1004.67
2018-04-29T08:40:41.026Z,1004.64
2018-04-29T08:41:41.086Z,1004.64
2018-04-29T08:42:41.059Z,1004.61
2018-04-29T08:43:41.079Z,1004.72
2018-04-29T08:44:41.094Z,1004.74
2018-04-29T08:45:41.115Z,1004.76
2018-04-29T08:46:41.133Z,1004.77
2018-04-29T08:47:41.185Z,1004.77
2018-04-29T08:48:41.188Z,1004.76
2018-04-29T08:49:41.181Z,1004.81
2018-04-29T08:50:41.198Z,1004.84
2018-04-29T08:51:41.212Z,1004.81
2018-04-29T08:52:41.237Z,1004.85
2018-04-29T08:53:41.272Z,1004.90
2018-04-29T08:54:41.270Z,1005.01
2018-04-29T08:55:41.283Z,1004.95
2018-04-29T08:56:41.300Z,1005.04
2018-04-29T08:57:41.325Z,1005.08
2018-04-29T08:58:41.339Z,1005.05
2018-04-29T08:59:41.356Z,1005.13
2018-04-29T09:00:41.368Z,1005.18
2018-04-29T09:01:41.432Z,1005.22
2018-04-29T09:02:41.407Z,1005.24
2018-04-29T09:03:41.529Z,1005.27
2018-04-29T09:04:41.444Z,1005.32
2018-04-29T09:05:41.476Z,1005.30
2018-04-29T09:06:41.476Z,1005.37
2018-04-29T09:07:41.491Z,1005.30
2018-04-29T09:08:41.503Z,1005.32
2018-04-29T09:09:41.525Z,1005.31
2018-04-29T09:10:41.537Z,1005.29
2018-04-29T09:11:41.577Z,1005.31
2018-04-29T09:12:41.583Z,1005.29
2018-04-29T09:13:41.594Z,1005.29
2018-04-29T09:14:41.603Z,1005.33
2018-04-29T09:15:41.618Z,1005.28
2018-04-29T09:16:41.645Z,1005.21
2018-04-29T09:17:41.733Z,1005.22
2018-04-29T09:18:41.663Z,1005.24
2018-04-29T09:19:41.684Z,1005.24
2018-04-29T09:20:41.698Z,1005.27
2018-04-29T09:21:41.716Z,1005.28
2018-04-29T09:22:41.733Z,1005.30
2018-04-29T09:23:41.744Z,1005.29
2018-04-29T09:24:41.760Z,1005.36
2018-04-29T09:25:41.783Z,1005.27
2018-04-29T09:26:41.803Z,1005.36
2018-04-29T09:27:41.817Z,1005.34
2018-04-29T09:28:41.830Z,1005.35
2018-04-29T09:29:41.851Z,1005.40
2018-04-29T09:30:41.861Z,1005.46
2018-04-29T09:31:41.882Z,1005.41
2018-04-29T09:32:41.898Z,1005.42
2018-04-29T09:33:41.920Z,1005.56
2018-04-29T09:34:41.933Z,1005.54
2018-04-29T09:35:41.986Z,1005.50
2018-04-29T09:36:41.974Z,1005.53
2018-04-29T09:37:41.989Z,1005.51
2018-04-29T09:38:42.010Z,1005.51
2018-04-29T09:39:42.031Z,1005.50
2018-04-29T09:40:42.048Z,1005.52
2018-04-29T09:41:42.066Z,1005.48
2018-04-29T09:42:42.088Z,1005.54
2018-04-29T09:43:42.142Z,1005.57
2018-04-29T09:44:42.116Z,1005.45
2018-04-29T09:45:42.134Z,1005.48
2018-04-29T09:46:42.153Z,1005.51
2018-04-29T09:47:42.177Z,1005.54
2018-04-29T09:48:42.266Z,1005.55
2018-04-29T09:49:42.206Z,1005.53
2018-04-29T09:50:42.231Z,1005.50
2018-04-29T09:51:42.260Z,1005.51
2018-04-29T09:52:42.270Z,1005.60
2018-04-29T09:53:42.283Z,1005.66
2018-04-29T09:54:42.298Z,1005.72
2018-04-29T09:55:42.320Z,1005.67
2018-04-29T09:56:42.336Z,1005.64
2018-04-29T09:57:42.355Z,1005.63
2018-04-29T09:58:42.373Z,1005.65
2018-04-29T09:59:42.392Z,1005.64
2018-04-29T10:00:42.412Z,1005.68
2018-04-29T10:01:42.482Z,1005.66
2018-04-29T10:02:42.447Z,1005.64
2018-04-29T10:03:42.465Z,1005.59
2018-04-29T10:04:42.482Z,1005.66
2018-04-29T10:05:42.496Z,1005.70
2018-04-29T10:06:42.520Z,1005.69
2018-04-29T10:07:42.590Z,1005.62
2018-04-29T10:08:42.548Z,1005.69
2018-04-29T10:09:42.567Z,1005.57
2018-04-29T10:10:42.589Z,1005.61
2018-04-29T10:11:42.607Z,1005.60
2018-04-29T10:12:42.625Z,1005.62
2018-04-29T10:13:42.670Z,1005.65
2018-04-29T10:14:42.664Z,1005.68
2018-04-29T10:15:42.684Z,1005.73
2018-04-29T10:16:42.696Z,1005.69
2018-04-29T10:17:42.720Z,1005.82
2018-04-29T10:18:42.770Z,1005.91
2018-04-29T10:19:42.750Z,1005.85
2018-04-29T10:20:42.777Z,1005.96
2018-04-29T10:22:42.808Z,1006.07
2018-04-29T10:23:42.826Z,1006.01
2018-04-29T10:24:42.891Z,1006.01
2018-04-29T10:25:42.911Z,1006.08
2018-04-29T10:26:42.875Z,1006.04
2018-04-29T10:27:42.891Z,1005.99
2018-04-29T10:28:42.914Z,1006.04
2018-04-29T10:29:42.931Z,1006.06
2018-04-29T10:30:42.946Z,1005.97
2018-04-29T10:31:43.006Z,1005.91
2018-04-29T10:32:42.981Z,1005.89
2018-04-29T10:33:42.999Z,1005.87
2018-04-29T10:34:43.016Z,1005.87
2018-04-29T10:35:43.030Z,1005.87
2018-04-29T10:36:43.051Z,1005.84
2018-04-29T10:37:43.066Z,1005.86
2018-04-29T10:38:43.098Z,1005.84
2018-04-29T10:39:43.102Z,1005.88
2018-04-29T10:40:43.116Z,1005.85
2018-04-29T10:41:43.164Z,1005.89
2018-04-29T10:42:43.153Z,1005.97
2018-04-29T10:43:43.168Z,1005.96
2018-04-29T10:44:43.188Z,1005.94
2018-04-29T10:45:43.204Z,1005.93
2018-04-29T10:46:43.221Z,1005.96
2018-04-29T10:47:43.244Z,1006.00
2018-04-29T10:48:43.263Z,1005.95
2018-04-29T10:49:43.279Z,1005.93
2018-04-29T10:50:43.295Z,1005.95
2018-04-29T10:51:43.323Z,1005.97
2018-04-29T10:52:43.336Z,1005.98
2018-04-29T10:53:43.352Z,1006.01
2018-04-29T10:54:43.371Z,1006.05
2018-04-29T10:55:43.393Z,1006.10
2018-04-29T10:56:43.510Z,1006.06
2018-04-29T10:57:43.428Z,1006.08
2018-04-29T10:58:43.577Z,1005.97
2018-04-29T10:59:43.459Z,1005.98
2018-04-29T11:00:43.489Z,1006.04
2018-04-29T11:01:43.503Z,1005.97
2018-04-29T11:02:43.521Z,1005.95
2018-04-29T11:03:43.544Z,1005.97
2018-04-29T11:04:43.559Z,1006.04
2018-04-29T11:05:43.572Z,1006.00
2018-04-29T11:06:43.597Z,1005.95
2018-04-29T11:07:43.610Z,1006.02
2018-04-29T11:08:43.633Z,1006.06
2018-04-29T11:09:43.652Z,1006.01
2018-04-29T11:10:43.676Z,1006.05
2018-04-29T11:11:43.748Z,1006.04
2018-04-29T11:12:43.715Z,1006.07
2018-04-29T11:13:43.729Z,1006.09
2018-04-29T11:14:43.747Z,1006.10
2018-04-29T11:15:43.810Z,1005.98
2018-04-29T11:16:43.785Z,1006.00
2018-04-29T11:17:43.804Z,1005.96
2018-04-29T11:18:43.876Z,1006.00
2018-04-29T11:19:43.842Z,1006.08
2018-04-29T11:20:43.861Z,1005.91
2018-04-29T11:21:43.882Z,1005.93
2018-04-29T11:22:43.906Z,1005.90
2018-04-29T11:23:43.925Z,1005.95
2018-04-29T11:24:43.936Z,1005.81
2018-04-29T11:25:43.955Z,1005.78
2018-04-29T11:26:43.978Z,1005.82
2018-04-29T11:27:43.996Z,1005.91
2018-04-29T11:28:44.020Z,1005.87
2018-04-29T11:29:44.030Z,1005.83
2018-04-29T11:30:44.166Z,1005.78
2018-04-29T11:31:44.075Z,1005.80
2018-04-29T11:32:44.097Z,1005.68
2018-04-29T11:33:44.110Z,1005.75
2018-04-29T11:34:44.130Z,1005.76
2018-04-29T11:35:44.159Z,1005.78
2018-04-29T11:36:44.166Z,1005.80
2018-04-29T11:37:44.187Z,1005.85
2018-04-29T11:38:44.204Z,1005.85
2018-04-29T11:39:44.219Z,1005.90
2018-04-29T11:40:44.283Z,1005.86
2018-04-29T11:41:44.256Z,1005.88
2018-04-29T11:42:44.278Z,1005.78
2018-04-29T11:43:44.293Z,1005.79
2018-04-29T11:44:44.318Z,1005.72
2018-04-29T11:45:44.410Z,1005.72
2018-04-29T11:46:44.348Z,1005.81
2018-04-29T11:47:44.373Z,1005.77
2018-04-29T11:48:44.387Z,1005.83
2018-04-29T11:49:44.407Z,1005.97
2018-04-29T11:50:44.429Z,1005.84
2018-04-29T11:51:44.450Z,1005.85
2018-04-29T11:52:44.461Z,1005.84
2018-04-29T11:53:44.484Z,1005.77
2018-04-29T11:54:44.508Z,1005.75
2018-04-29T11:55:44.520Z,1005.92
2018-04-29T11:56:44.545Z,1005.73
2018-04-29T11:57:44.560Z,1005.89
2018-04-29T11:58:44.585Z,1005.85
2018-04-29T11:59:44.605Z,1005.78
2018-04-29T12:00:44.622Z,1005.77
2018-04-29T12:01:44.642Z,1005.92
2018-04-29T12:02:44.659Z,1006.06
2018-04-29T12:03:44.679Z,1005.98
2018-04-29T12:04:44.696Z,1005.90
2018-04-29T12:05:44.720Z,1005.92
2018-04-29T12:06:44.743Z,1005.89
2018-04-29T12:07:44.754Z,1006.03